createdAt,value
2022-12-06T00:02:26.667Z,8.23
2022-12-06T00:04:56.687Z,8.20
2022-12-06T00:07:26.598Z,8.22
2022-12-06T00:09:56.634Z,8.15
2022-12-06T00:12:29.859Z,8.24
2022-12-06T00:15:02.818Z,8.32
2022-12-06T00:17:32.753Z,8.39
2022-12-06T00:20:02.824Z,8.38
2022-12-06T00:22:33.002Z,8.41
2022-12-06T00:25:02.984Z,8.44
2022-12-06T00:27:35.520Z,8.42
2022-12-06T00:30:05.619Z,8.36
2022-12-06T00:32:35.622Z,8.41
2022-12-06T00:35:05.801Z,8.42
2022-12-06T00:37:35.775Z,8.42
2022-12-06T00:40:05.942Z,8.42
2022-12-06T00:42:38.465Z,8.38
2022-12-06T00:45:10.040Z,8.42
2022-12-06T00:47:39.987Z,8.07
2022-12-06T00:50:11.614Z,8.25
2022-12-06T00:52:41.466Z,8.41
2022-12-06T00:55:11.860Z,8.41
2022-12-06T00:57:44.479Z,8.36
2022-12-06T01:00:16.095Z,8.39
2022-12-06T01:02:46.110Z,8.34
2022-12-06T01:05:16.060Z,8.33
2022-12-06T01:07:46.314Z,8.35
2022-12-06T01:10:16.216Z,8.20
2022-12-06T01:12:48.836Z,8.29
2022-12-06T01:15:19.165Z,8.36
2022-12-06T01:17:49.072Z,8.36
2022-12-06T01:20:19.348Z,8.39
2022-12-06T01:22:49.323Z,8.37
2022-12-06T01:25:19.509Z,8.32
2022-12-06T01:27:52.183Z,8.30
2022-12-06T01:30:22.537Z,8.27
2022-12-06T01:32:52.785Z,8.30
2022-12-06T01:35:22.845Z,8.25
2022-12-06T01:37:52.941Z,8.19
2022-12-06T01:40:22.980Z,8.14
2022-12-06T01:42:55.779Z,8.09
2022-12-06T01:45:25.870Z,8.03
2022-12-06T01:47:56.095Z,7.97
2022-12-06T01:50:30.472Z,7.95
2022-12-06T01:53:05.251Z,8.04
2022-12-06T01:55:39.610Z,8.05
2022-12-06T01:58:15.731Z,8.15
2022-12-06T02:00:45.820Z,8.17
2022-12-06T02:03:21.972Z,8.16
2022-12-06T02:05:52.196Z,8.18
2022-12-06T02:08:23.851Z,8.17
2022-12-06T02:10:56.589Z,8.17
2022-12-06T02:13:29.299Z,8.17
2022-12-06T02:16:05.260Z,8.14
2022-12-06T02:18:41.570Z,8.09
2022-12-06T02:21:19.041Z,8.08
2022-12-06T02:24:23.203Z,8.06
2022-12-06T02:26:55.644Z,7.98
2022-12-06T02:29:58.927Z,7.89
2022-12-06T02:32:37.664Z,7.83
2022-12-06T02:35:15.227Z,7.81
2022-12-06T02:37:50.832Z,7.80
2022-12-06T02:40:25.345Z,7.83
2022-12-06T02:43:00.094Z,7.88
2022-12-06T02:45:33.256Z,7.87
2022-12-06T02:48:07.484Z,7.93
2022-12-06T02:50:42.967Z,7.94
2022-12-06T02:53:17.909Z,8.01
2022-12-06T02:55:49.399Z,8.02
2022-12-06T02:58:19.588Z,8.01
2022-12-06T03:00:53.008Z,7.98
2022-12-06T03:03:40.087Z,8.02
2022-12-06T03:06:24.233Z,8.01
2022-12-06T03:09:08.198Z,8.00
2022-12-06T03:11:47.492Z,8.01
2022-12-06T03:14:22.370Z,8.02
2022-12-06T03:16:59.395Z,8.01
2022-12-06T03:19:34.745Z,8.06
2022-12-06T03:22:09.438Z,7.93
2022-12-06T03:24:42.192Z,8.00
2022-12-06T03:27:17.179Z,8.02
2022-12-06T03:29:53.011Z,8.05
2022-12-06T03:32:27.827Z,7.96
2022-12-06T03:35:05.715Z,8.05
2022-12-06T03:37:37.296Z,8.01
2022-12-06T03:40:15.316Z,7.97
2022-12-06T03:42:45.765Z,8.03
2022-12-06T03:45:17.045Z,8.06
2022-12-06T03:47:53.275Z,8.05
2022-12-06T03:50:32.343Z,8.05
2022-12-06T03:53:03.916Z,7.92
2022-12-06T03:55:33.995Z,8.07
2022-12-06T03:58:04.094Z,8.07
2022-12-06T04:00:34.113Z,8.13
2022-12-06T04:03:04.194Z,8.04
2022-12-06T04:05:37.017Z,8.11
2022-12-06T04:08:07.846Z,8.04
2022-12-06T04:10:38.248Z,8.10
2022-12-06T04:13:08.614Z,8.06
2022-12-06T04:15:40.480Z,8.12
2022-12-06T04:18:13.722Z,8.09
2022-12-06T04:21:02.028Z,8.14
2022-12-06T04:23:33.683Z,8.15
2022-12-06T04:26:04.502Z,8.19
2022-12-06T04:28:47.220Z,8.23
2022-12-06T04:31:29.793Z,8.17
2022-12-06T04:34:12.262Z,8.21
2022-12-06T04:36:57.530Z,8.24
2022-12-06T04:39:28.207Z,8.20
2022-12-06T04:42:10.867Z,8.17
2022-12-06T04:44:45.835Z,8.19
2022-12-06T04:47:15.950Z,8.21
2022-12-06T04:49:46.470Z,8.18
2022-12-06T04:52:20.113Z,8.14
2022-12-06T04:54:50.431Z,8.20
2022-12-06T04:57:20.645Z,8.19
2022-12-06T04:59:51.265Z,8.20
2022-12-06T05:02:21.283Z,8.21
2022-12-06T05:04:51.314Z,8.23
2022-12-06T05:07:24.033Z,8.22
2022-12-06T05:09:54.153Z,8.26
2022-12-06T05:12:24.286Z,8.26
2022-12-06T05:14:54.239Z,8.17
2022-12-06T05:17:24.366Z,8.19
2022-12-06T05:19:54.448Z,8.25
2022-12-06T05:22:27.078Z,8.28
2022-12-06T05:24:57.146Z,8.27
2022-12-06T05:27:29.554Z,8.26
2022-12-06T05:30:03.170Z,8.24
2022-12-06T05:32:33.269Z,8.25
2022-12-06T05:35:03.915Z,8.24
2022-12-06T05:37:36.542Z,8.24
2022-12-06T05:40:07.424Z,8.24
2022-12-06T05:42:37.823Z,8.19
2022-12-06T05:45:09.118Z,8.24
2022-12-06T05:47:39.993Z,8.23
2022-12-06T05:50:12.394Z,8.27
2022-12-06T05:52:47.558Z,8.31
2022-12-06T05:55:17.895Z,8.20
2022-12-06T05:57:47.923Z,8.25
2022-12-06T06:00:19.024Z,8.26
2022-12-06T06:02:50.185Z,8.26
2022-12-06T06:05:20.553Z,8.28
2022-12-06T06:07:53.275Z,8.30
2022-12-06T06:10:23.359Z,8.29
2022-12-06T06:12:53.675Z,8.26
2022-12-06T06:15:23.714Z,8.29
2022-12-06T06:17:53.794Z,8.28
2022-12-06T06:20:23.966Z,8.26
2022-12-06T06:22:59.749Z,8.23
2022-12-06T06:25:29.836Z,8.24
2022-12-06T06:27:59.895Z,8.23
2022-12-06T06:30:31.984Z,8.22
2022-12-06T06:33:02.083Z,8.26
2022-12-06T06:35:32.298Z,8.22
2022-12-06T06:38:05.441Z,8.21
2022-12-06T06:40:35.775Z,8.16
2022-12-06T06:43:18.602Z,8.19
2022-12-06T06:45:49.596Z,8.19
2022-12-06T06:48:20.208Z,8.15
2022-12-06T06:50:55.405Z,8.18
2022-12-06T06:53:29.890Z,8.17
2022-12-06T06:56:00.095Z,8.16
2022-12-06T06:58:30.248Z,8.17
2022-12-06T07:01:03.764Z,8.19
2022-12-06T07:03:34.657Z,8.12
2022-12-06T07:06:07.365Z,8.14
2022-12-06T07:08:41.629Z,8.13
2022-12-06T07:11:13.616Z,8.03
2022-12-06T07:13:51.201Z,8.02
2022-12-06T07:16:22.831Z,7.95
2022-12-06T07:18:53.103Z,7.93
2022-12-06T07:21:24.300Z,7.89
2022-12-06T07:23:56.900Z,7.89
2022-12-06T07:26:29.031Z,7.81
2022-12-06T07:28:59.471Z,7.91
2022-12-06T07:31:31.693Z,7.88
2022-12-06T07:34:03.549Z,7.91
2022-12-06T07:36:35.175Z,7.89
2022-12-06T07:39:14.267Z,7.89
2022-12-06T07:41:57.256Z,7.89
2022-12-06T07:44:39.806Z,7.90
2022-12-06T07:47:09.862Z,7.83
2022-12-06T07:49:39.871Z,7.82
2022-12-06T07:52:09.933Z,7.85
2022-12-06T07:54:42.654Z,7.87
2022-12-06T07:57:12.721Z,7.85
2022-12-06T07:59:42.778Z,7.76
2022-12-06T08:02:21.189Z,7.82
2022-12-06T08:04:51.626Z,7.82
2022-12-06T08:07:21.945Z,7.82
2022-12-06T08:09:55.526Z,7.78
2022-12-06T08:12:26.735Z,7.75
2022-12-06T08:14:59.791Z,7.74
2022-12-06T08:17:30.470Z,7.79
2022-12-06T08:20:01.122Z,7.84
2022-12-06T08:22:31.492Z,7.88
2022-12-06T08:25:04.112Z,7.83
2022-12-06T08:27:34.190Z,7.89
2022-12-06T08:30:04.298Z,7.85
2022-12-06T08:32:34.408Z,7.90
2022-12-06T08:35:04.526Z,7.95
2022-12-06T08:37:36.201Z,7.90
2022-12-06T08:40:10.611Z,7.91
2022-12-06T08:42:42.684Z,7.87
2022-12-06T08:45:13.150Z,7.80
2022-12-06T08:47:43.325Z,7.76
2022-12-06T08:50:14.002Z,7.79
2022-12-06T08:52:44.380Z,7.80
2022-12-06T08:55:17.016Z,7.78
2022-12-06T08:57:47.150Z,7.75
2022-12-06T09:00:19.097Z,7.74
2022-12-06T09:02:49.632Z,7.79
2022-12-06T09:05:19.824Z,7.72
2022-12-06T09:07:50.064Z,7.74
2022-12-06T09:10:22.925Z,7.73
2022-12-06T09:12:53.081Z,7.65
2022-12-06T09:15:23.594Z,7.53
2022-12-06T09:17:53.679Z,7.55
2022-12-06T09:20:23.843Z,7.39
2022-12-06T09:22:53.917Z,7.61
2022-12-06T09:25:26.584Z,7.64
2022-12-06T09:27:56.753Z,7.68
2022-12-06T09:30:27.283Z,7.70
2022-12-06T09:33:04.675Z,7.82
2022-12-06T09:35:35.098Z,7.86
2022-12-06T09:38:05.781Z,7.84
2022-12-06T09:40:46.465Z,7.77
2022-12-06T09:43:30.309Z,7.75
2022-12-06T09:46:14.314Z,7.71
2022-12-06T09:49:04.828Z,7.74
2022-12-06T09:51:48.698Z,7.79
2022-12-06T09:54:39.013Z,7.71
2022-12-06T09:57:21.471Z,7.74
2022-12-06T10:00:03.715Z,7.64
2022-12-06T10:03:13.647Z,7.70
2022-12-06T10:06:01.692Z,7.78
2022-12-06T10:09:24.027Z,7.87
2022-12-06T10:12:06.040Z,7.93
2022-12-06T10:55:38.879Z,7.67
2022-12-06T10:58:18.821Z,7.56
2022-12-06T11:00:57.993Z,7.71
2022-12-06T11:03:35.078Z,7.60
2022-12-06T11:06:12.837Z,7.70
2022-12-06T11:08:46.780Z,7.65
2022-12-06T11:11:21.326Z,7.67
2022-12-06T11:14:02.493Z,7.72
2022-12-06T11:16:36.995Z,7.70
2022-12-06T11:19:23.435Z,7.69
2022-12-06T11:21:59.948Z,7.64
2022-12-06T11:24:35.711Z,7.68
2022-12-06T11:27:16.125Z,7.62
2022-12-06T11:29:51.323Z,7.59
2022-12-06T11:32:22.144Z,7.61
2022-12-06T11:34:56.517Z,7.69
2022-12-06T11:37:29.424Z,7.74
2022-12-06T11:40:09.138Z,7.78
2022-12-06T11:42:41.903Z,7.88
2022-12-06T11:45:18.769Z,7.92
2022-12-06T11:47:49.488Z,8.12
2022-12-06T11:50:22.573Z,8.16
2022-12-06T11:52:56.015Z,8.21
2022-12-06T11:55:30.353Z,8.23
2022-12-06T11:58:09.983Z,8.17
2022-12-06T12:00:44.013Z,8.17
2022-12-06T12:03:28.828Z,8.24
2022-12-06T12:06:11.420Z,8.34
2022-12-06T12:08:41.831Z,8.39
2022-12-06T12:11:23.647Z,8.50
2022-12-06T12:14:00.965Z,8.57
2022-12-06T12:16:35.279Z,8.65
2022-12-06T12:19:07.341Z,8.73
2022-12-06T12:21:43.343Z,8.77
2022-12-06T12:27:48.000Z,8.72
2022-12-06T12:30:31.188Z,8.75
2022-12-06T12:33:20.324Z,8.74
2022-12-06T12:35:57.086Z,8.58
2022-12-06T12:38:31.416Z,8.62
2022-12-06T12:41:05.354Z,8.60
2022-12-06T12:43:37.210Z,8.64
2022-12-06T12:46:21.462Z,8.69
2022-12-06T12:48:53.631Z,8.72
2022-12-06T12:51:36.430Z,8.82
2022-12-06T12:54:09.258Z,8.77
2022-12-06T12:56:41.635Z,8.76
2022-12-06T12:59:19.663Z,8.72
2022-12-06T13:01:57.317Z,8.69
2022-12-06T13:04:41.406Z,8.68
2022-12-06T13:07:20.248Z,8.72
2022-12-06T13:09:58.526Z,8.75
2022-12-06T13:12:33.710Z,8.75
2022-12-06T13:15:10.216Z,8.72
2022-12-06T13:17:49.602Z,8.72
2022-12-06T13:20:25.565Z,8.73
2022-12-06T13:22:59.903Z,8.74
2022-12-06T13:25:30.071Z,8.72
2022-12-06T13:28:05.563Z,8.75
2022-12-06T13:30:41.412Z,8.65
2022-12-06T13:33:22.009Z,8.63
2022-12-06T13:35:58.492Z,8.60
2022-12-06T13:38:34.077Z,8.55
2022-12-06T13:41:05.802Z,8.48
2022-12-06T13:43:56.515Z,8.46
2022-12-06T13:46:34.881Z,8.25
2022-12-06T13:49:27.694Z,8.04
2022-12-06T13:51:57.864Z,7.83
2022-12-06T13:54:37.030Z,7.71
2022-12-06T13:57:32.192Z,7.72
2022-12-06T14:00:03.018Z,7.73
2022-12-06T14:02:54.586Z,7.62
2022-12-06T14:08:29.123Z,7.56
2022-12-06T14:11:11.088Z,7.47
2022-12-06T14:13:42.414Z,7.47
2022-12-06T14:16:18.248Z,7.56
2022-12-06T14:18:48.825Z,7.23
2022-12-06T14:21:26.690Z,7.37
2022-12-06T14:23:59.796Z,7.34
2022-12-06T14:26:31.572Z,7.32
2022-12-06T14:29:03.300Z,7.31
2022-12-06T14:31:41.184Z,7.36
2022-12-06T14:34:28.155Z,7.35
2022-12-06T14:36:59.304Z,7.37
2022-12-06T14:39:33.817Z,7.37
2022-12-06T14:42:18.360Z,7.35
2022-12-06T14:44:51.596Z,7.20
2022-12-06T14:47:23.740Z,7.22
2022-12-06T14:50:08.635Z,7.09
2022-12-06T14:52:38.660Z,7.16
2022-12-06T14:55:21.370Z,7.12
2022-12-06T14:57:54.182Z,7.00
2022-12-06T15:00:27.784Z,6.93
2022-12-06T15:03:01.932Z,6.92
2022-12-06T15:05:40.675Z,7.00
2022-12-06T15:08:22.936Z,7.00
2022-12-06T15:11:03.975Z,7.02
2022-12-06T15:13:31.954Z,6.94
2022-12-06T15:16:13.991Z,7.02
2022-12-06T15:18:47.888Z,6.99
2022-12-06T15:21:19.848Z,6.99
2022-12-06T15:23:51.465Z,6.88
2022-12-06T15:26:25.912Z,6.81
2022-12-06T15:28:55.917Z,6.87
2022-12-06T15:31:30.083Z,6.84
2022-12-06T15:34:00.284Z,6.81
2022-12-06T15:36:33.428Z,6.80
2022-12-06T15:39:03.547Z,6.74
2022-12-06T15:41:38.315Z,6.72
2022-12-06T15:44:08.810Z,6.72
2022-12-06T15:46:38.854Z,6.74
2022-12-06T15:49:09.356Z,6.92
2022-12-06T15:51:39.338Z,7.03
2022-12-06T15:54:09.511Z,7.11
2022-12-06T15:56:42.162Z,7.11
2022-12-06T15:59:12.395Z,7.08
2022-12-06T16:01:45.240Z,7.04
2022-12-06T16:04:22.678Z,6.98
2022-12-06T16:06:53.170Z,6.95
2022-12-06T16:09:23.546Z,6.85
2022-12-06T16:11:56.717Z,6.86
2022-12-06T16:14:26.901Z,6.88
2022-12-06T16:16:57.029Z,6.86
2022-12-06T16:19:47.144Z,6.83
2022-12-06T16:22:17.265Z,6.79
2022-12-06T16:24:46.240Z,6.75
2022-12-06T16:27:22.209Z,6.71
2022-12-06T16:29:52.255Z,6.63
2022-12-06T16:32:22.335Z,6.62
2022-12-06T16:34:52.479Z,6.57
2022-12-06T16:37:22.406Z,6.55
2022-12-06T16:39:52.880Z,6.54
2022-12-06T16:42:25.731Z,6.48
2022-12-06T16:44:55.830Z,6.46
2022-12-06T16:49:54.895Z,6.29
2022-12-06T16:52:25.010Z,6.25
2022-12-06T16:54:55.167Z,6.28
2022-12-06T16:57:27.766Z,6.30
2022-12-06T16:59:57.938Z,6.18
2022-12-06T17:02:29.927Z,6.16
2022-12-06T17:05:02.337Z,6.11
2022-12-06T17:07:32.966Z,6.14
2022-12-06T17:10:03.300Z,6.20
2022-12-06T17:12:36.179Z,6.23
2022-12-06T17:15:06.603Z,6.20
2022-12-06T17:17:36.682Z,6.15
2022-12-06T17:20:10.939Z,6.10
2022-12-06T17:22:44.597Z,6.08
2022-12-06T17:25:16.351Z,6.07
2022-12-06T17:27:50.039Z,6.07
2022-12-06T17:30:22.401Z,6.03
2022-12-06T17:32:52.382Z,6.02
2022-12-06T17:35:22.445Z,6.03
2022-12-06T17:37:54.580Z,6.00
2022-12-06T17:40:24.624Z,6.01
2022-12-06T17:43:00.503Z,6.03
2022-12-06T17:45:30.793Z,6.06
2022-12-06T17:48:01.283Z,6.06
2022-12-06T17:50:31.487Z,6.05
2022-12-06T17:53:01.678Z,5.97
2022-12-06T17:55:31.773Z,5.98
2022-12-06T17:58:05.114Z,5.95
2022-12-06T18:00:35.192Z,5.89
2022-12-06T18:03:05.403Z,5.78
2022-12-06T18:05:35.632Z,5.73
2022-12-06T18:08:05.880Z,5.69
2022-12-06T18:10:36.040Z,5.64
2022-12-06T18:13:10.427Z,5.61
2022-12-06T18:15:42.023Z,5.54
2022-12-06T18:18:12.124Z,5.50
2022-12-06T18:20:47.093Z,5.44
2022-12-06T18:23:17.419Z,5.39
2022-12-06T18:25:47.548Z,5.34
2022-12-06T18:28:20.212Z,5.30
2022-12-06T18:30:50.313Z,5.25
2022-12-06T18:33:22.568Z,5.18
2022-12-06T18:35:54.671Z,5.12
2022-12-06T18:38:24.905Z,5.04
2022-12-06T18:40:55.250Z,5.02
2022-12-06T18:43:27.915Z,4.95
2022-12-06T18:46:00.888Z,4.91
2022-12-06T18:48:32.216Z,4.83
2022-12-06T18:51:02.934Z,4.77
2022-12-06T18:53:35.525Z,4.73
2022-12-06T18:56:06.171Z,4.70
2022-12-06T18:58:39.119Z,4.65
2022-12-06T19:01:15.229Z,4.62
2022-12-06T19:03:46.467Z,4.61
2022-12-06T19:06:18.311Z,4.61
2022-12-06T19:08:48.472Z,4.53
2022-12-06T19:11:21.812Z,4.51
2022-12-06T19:13:58.690Z,4.45
2022-12-06T19:16:33.056Z,4.37
2022-12-06T19:19:05.231Z,4.34
2022-12-06T19:21:36.240Z,4.29
2022-12-06T19:24:07.332Z,4.22
2022-12-06T19:26:37.392Z,4.14
2022-12-06T19:29:10.277Z,4.01
2022-12-06T19:31:40.487Z,3.93
2022-12-06T19:34:16.874Z,3.87
2022-12-06T19:36:47.567Z,3.80
2022-12-06T19:39:18.081Z,3.82
2022-12-06T19:42:01.509Z,3.85
2022-12-06T19:44:35.712Z,3.89
2022-12-06T19:47:09.012Z,3.92
2022-12-06T19:49:39.163Z,3.99
2022-12-06T19:52:09.167Z,4.10
2022-12-06T19:54:40.322Z,4.16
2022-12-06T19:57:10.722Z,4.21
2022-12-06T19:59:43.479Z,4.28
2022-12-06T20:02:14.836Z,4.26
2022-12-06T20:04:46.579Z,4.22
2022-12-06T20:07:16.652Z,4.17
2022-12-06T20:09:46.764Z,3.95
2022-12-06T20:12:17.621Z,4.12
2022-12-06T20:14:54.878Z,4.13
2022-12-06T20:17:25.968Z,4.13
2022-12-06T20:19:56.975Z,4.17
2022-12-06T20:22:27.120Z,4.26
2022-12-06T20:24:57.251Z,4.29
2022-12-06T20:27:47.313Z,4.31
2022-12-06T20:30:26.301Z,4.34
2022-12-06T20:32:56.432Z,4.35
2022-12-06T20:35:27.784Z,4.37
2022-12-06T20:38:01.084Z,4.37
2022-12-06T20:40:31.889Z,4.36
2022-12-06T20:43:02.088Z,4.34
2022-12-06T20:45:34.793Z,4.33
2022-12-06T20:48:05.042Z,4.43
2022-12-06T20:50:35.183Z,4.50
2022-12-06T20:53:05.320Z,4.43
2022-12-06T20:55:36.313Z,4.39
2022-12-06T20:58:06.367Z,4.35
2022-12-06T21:00:39.076Z,4.31
2022-12-06T21:03:09.249Z,4.30
2022-12-06T21:05:43.340Z,4.27
2022-12-06T21:08:15.361Z,4.27
2022-12-06T21:11:20.752Z,4.32
2022-12-06T21:13:36.746Z,4.27
2022-12-06T21:16:11.245Z,4.23
2022-12-06T21:18:41.778Z,4.10
2022-12-06T21:21:12.570Z,4.12
2022-12-06T21:23:42.613Z,3.99
2022-12-06T21:26:13.067Z,3.96
2022-12-06T21:28:43.176Z,3.94
2022-12-06T21:31:15.939Z,3.96
2022-12-06T21:33:46.144Z,3.92
2022-12-06T21:36:16.182Z,3.86
2022-12-06T21:38:49.398Z,3.84
2022-12-06T21:41:19.982Z,3.79
2022-12-06T21:43:50.660Z,3.65
2022-12-06T21:46:25.566Z,3.71
2022-12-06T21:48:57.464Z,3.61
2022-12-06T21:51:29.503Z,3.62
2022-12-06T21:54:00.103Z,3.56
2022-12-06T21:56:33.697Z,3.37
2022-12-06T21:59:03.855Z,3.40
2022-12-06T22:01:36.540Z,3.38
2022-12-06T22:04:06.628Z,3.36
2022-12-06T22:06:38.796Z,3.32
2022-12-06T22:09:09.072Z,3.31
2022-12-06T22:11:39.179Z,3.27
2022-12-06T22:14:09.159Z,3.24
2022-12-06T22:16:41.796Z,3.21
2022-12-06T22:19:12.040Z,3.13
2022-12-06T22:21:42.096Z,3.23
2022-12-06T22:24:12.225Z,3.21
2022-12-06T22:26:42.430Z,3.07
2022-12-06T22:29:13.124Z,3.22
2022-12-06T22:31:45.997Z,3.13
2022-12-06T22:34:16.176Z,3.11
2022-12-06T22:36:46.328Z,3.13
2022-12-06T22:39:16.439Z,3.07
2022-12-06T22:41:46.504Z,3.11
2022-12-06T22:44:16.661Z,3.01
2022-12-06T22:46:49.555Z,2.98
2022-12-06T22:49:19.696Z,2.89
2022-12-06T22:51:49.736Z,2.81
2022-12-06T22:54:19.765Z,2.76
2022-12-06T22:56:50.191Z,2.73
2022-12-06T22:59:22.314Z,2.68
2022-12-06T23:01:54.911Z,2.65
2022-12-06T23:04:25.034Z,2.61
2022-12-06T23:06:57.896Z,2.60
2022-12-06T23:09:28.172Z,2.56
2022-12-06T23:11:58.358Z,2.58
2022-12-06T23:14:28.341Z,2.58
2022-12-06T23:17:01.228Z,2.48
2022-12-06T23:19:31.413Z,2.55
2022-12-06T23:22:01.445Z,2.56
2022-12-06T23:24:31.457Z,2.55
2022-12-06T23:27:01.803Z,2.50
2022-12-06T23:29:32.017Z,2.47
2022-12-06T23:32:07.094Z,2.47
2022-12-06T23:34:37.242Z,2.45
2022-12-06T23:37:07.791Z,2.46
2022-12-06T23:39:38.074Z,2.41
2022-12-06T23:42:08.778Z,2.45
2022-12-06T23:44:40.218Z,2.51
2022-12-06T23:47:12.917Z,2.53
2022-12-06T23:49:43.059Z,2.63
2022-12-06T23:52:13.166Z,2.56
2022-12-06T23:54:43.191Z,2.64
2022-12-06T23:57:15.121Z,2.67
2022-12-06T23:59:45.291Z,2.67
